sensor_id;sensor_type;location;lat;lon;timestamp;pressure;altitude;pressure_sealevel;temperature;humidity
45040;BME280;30778;53.574;7.770;2023-02-10T00:01:42;103228.44;;;1.19;56.54
45040;BME280;30778;53.574;7.770;2023-02-10T00:04:10;103232.25;;;1.52;54.94
45040;BME280;30778;53.574;7.770;2023-02-10T00:06:36;103234.84;;;1.30;55.86
45040;BME280;30778;53.574;7.770;2023-02-10T00:09:02;103221.66;;;1.21;56.53
45040;BME280;30778;53.574;7.770;2023-02-10T00:11:28;103232.59;;;1.39;55.58
45040;BME280;30778;53.574;7.770;2023-02-10T00:14:20;103226.94;;;1.72;54.79
45040;BME280;30778;53.574;7.770;2023-02-10T00:16:49;103229.44;;;1.70;54.16
45040;BME280;30778;53.574;7.770;2023-02-10T00:19:15;103230.97;;;1.17;56.08
45040;BME280;30778;53.574;7.770;2023-02-10T00:21:40;103234.34;;;1.16;55.69
45040;BME280;30778;53.574;7.770;2023-02-10T00:24:05;103234.09;;;0.86;56.29
45040;BME280;30778;53.574;7.770;2023-02-10T00:26:31;103238.97;;;1.25;54.69
45040;BME280;30778;53.574;7.770;2023-02-10T00:28:56;103234.53;;;0.98;55.69
45040;BME280;30778;53.574;7.770;2023-02-10T00:31:23;103226.41;;;0.65;56.11
45040;BME280;30778;53.574;7.770;2023-02-10T00:33:48;103233.41;;;0.25;57.06
45040;BME280;30778;53.574;7.770;2023-02-10T00:36:16;103234.97;;;0.64;55.69
45040;BME280;30778;53.574;7.770;2023-02-10T00:38:43;103232.03;;;0.55;55.77
45040;BME280;30778;53.574;7.770;2023-02-10T00:41:14;103233.84;;;0.15;56.95
45040;BME280;30778;53.574;7.770;2023-02-10T00:43:41;103233.28;;;0.22;56.49
45040;BME280;30778;53.574;7.770;2023-02-10T00:46:08;103232.91;;;0.34;56.07
45040;BME280;30778;53.574;7.770;2023-02-10T00:48:33;103236.91;;;0.27;55.78
45040;BME280;30778;53.574;7.770;2023-02-10T00:51:00;103240.94;;;0.21;56.14
45040;BME280;30778;53.574;7.770;2023-02-10T00:53:25;103237.53;;;0.43;55.30
45040;BME280;30778;53.574;7.770;2023-02-10T00:55:51;103239.72;;;-0.08;56.69
45040;BME280;30778;53.574;7.770;2023-02-10T00:58:16;103247.28;;;0.08;56.26
45040;BME280;30778;53.574;7.770;2023-02-10T01:00:42;103253.97;;;-0.17;56.92
45040;BME280;30778;53.574;7.770;2023-02-10T01:03:08;103256.44;;;-0.18;57.38
45040;BME280;30778;53.574;7.770;2023-02-10T01:05:33;103258.09;;;0.01;56.67
45040;BME280;30778;53.574;7.770;2023-02-10T01:07:59;103254.47;;;-0.04;56.43
45040;BME280;30778;53.574;7.770;2023-02-10T01:10:25;103255.19;;;-0.28;57.33
45040;BME280;30778;53.574;7.770;2023-02-10T01:12:51;103262.19;;;-0.04;56.40
45040;BME280;30778;53.574;7.770;2023-02-10T01:15:16;103253.72;;;-0.02;55.96
45040;BME280;30778;53.574;7.770;2023-02-10T01:17:45;103265.19;;;-0.15;56.33
45040;BME280;30778;53.574;7.770;2023-02-10T01:20:11;103274.13;;;-0.26;56.28
45040;BME280;30778;53.574;7.770;2023-02-10T01:22:36;103267.59;;;-0.37;56.74
45040;BME280;30778;53.574;7.770;2023-02-10T01:25:05;103261.66;;;-0.36;56.74
45040;BME280;30778;53.574;7.770;2023-02-10T01:27:30;103281.16;;;-0.41;56.62
45040;BME280;30778;53.574;7.770;2023-02-10T01:29:55;103274.09;;;-0.65;57.86
45040;BME280;30778;53.574;7.770;2023-02-10T01:32:21;103272.53;;;-0.42;57.05
45040;BME280;30778;53.574;7.770;2023-02-10T01:34:46;103279.09;;;-0.68;58.23
45040;BME280;30778;53.574;7.770;2023-02-10T01:37:12;103285.13;;;-0.28;56.29
45040;BME280;30778;53.574;7.770;2023-02-10T01:39:37;103287.50;;;-0.33;56.06
45040;BME280;30778;53.574;7.770;2023-02-10T01:42:03;103290.72;;;-0.37;56.64
45040;BME280;30778;53.574;7.770;2023-02-10T01:46:55;103280.13;;;-0.25;55.23
45040;BME280;30778;53.574;7.770;2023-02-10T01:49:25;103282.50;;;-0.30;55.63
45040;BME280;30778;53.574;7.770;2023-02-10T01:52:00;103275.19;;;-0.40;56.17
45040;BME280;30778;53.574;7.770;2023-02-10T01:54:31;103263.88;;;-0.44;56.41
45040;BME280;30778;53.574;7.770;2023-02-10T01:56:59;103269.31;;;-0.38;56.02
45040;BME280;30778;53.574;7.770;2023-02-10T01:59:27;103275.28;;;-0.39;55.87
45040;BME280;30778;53.574;7.770;2023-02-10T02:01:55;103273.34;;;-0.62;57.01
45040;BME280;30778;53.574;7.770;2023-02-10T02:04:21;103276.03;;;-0.41;56.22
45040;BME280;30778;53.574;7.770;2023-02-10T02:06:47;103282.91;;;-0.40;55.75
45040;BME280;30778;53.574;7.770;2023-02-10T02:09:13;103275.19;;;-0.40;56.32
45040;BME280;30778;53.574;7.770;2023-02-10T02:14:39;103279.78;;;-0.33;56.20
45040;BME280;30778;53.574;7.770;2023-02-10T02:26:17;103275.81;;;-0.46;55.99
45040;BME280;30778;53.574;7.770;2023-02-10T02:31:52;103259.91;;;-0.57;55.26
45040;BME280;30778;53.574;7.770;2023-02-10T02:34:35;103255.16;;;-0.67;55.47
45040;BME280;30778;53.574;7.770;2023-02-10T02:37:14;103264.56;;;-0.67;55.75
45040;BME280;30778;53.574;7.770;2023-02-10T02:39:42;103276.88;;;-0.60;55.59
45040;BME280;30778;53.574;7.770;2023-02-10T02:44:34;103265.56;;;-0.83;56.57
45040;BME280;30778;53.574;7.770;2023-02-10T02:47:09;103267.34;;;-0.63;56.43
45040;BME280;30778;53.574;7.770;2023-02-10T02:49:46;103267.38;;;-0.81;57.19
45040;BME280;30778;53.574;7.770;2023-02-10T02:52:22;103261.38;;;-0.62;56.63
45040;BME280;30778;53.574;7.770;2023-02-10T02:54:58;103254.28;;;-0.67;56.66
45040;BME280;30778;53.574;7.770;2023-02-10T02:57:44;103247.34;;;-0.70;57.35
45040;BME280;30778;53.574;7.770;2023-02-10T03:00:18;103247.66;;;-0.62;57.33
45040;BME280;30778;53.574;7.770;2023-02-10T03:02:47;103243.19;;;-0.86;57.65
45040;BME280;30778;53.574;7.770;2023-02-10T03:05:20;103246.13;;;-0.59;56.87
45040;BME280;30778;53.574;7.770;2023-02-10T03:07:47;103238.25;;;-0.62;57.09
45040;BME280;30778;53.574;7.770;2023-02-10T03:10:14;103236.25;;;-0.49;56.78
45040;BME280;30778;53.574;7.770;2023-02-10T03:12:39;103241.47;;;-0.48;56.81
45040;BME280;30778;53.574;7.770;2023-02-10T03:15:05;103249.16;;;-0.67;57.88
45040;BME280;30778;53.574;7.770;2023-02-10T03:17:31;103242.19;;;-0.50;57.01
45040;BME280;30778;53.574;7.770;2023-02-10T03:19:56;103244.09;;;-0.46;56.72
45040;BME280;30778;53.574;7.770;2023-02-10T03:22:22;103241.25;;;-0.72;57.83
45040;BME280;30778;53.574;7.770;2023-02-10T03:24:47;103243.09;;;-0.50;56.66
45040;BME280;30778;53.574;7.770;2023-02-10T03:27:12;103242.13;;;-0.52;56.43
45040;BME280;30778;53.574;7.770;2023-02-10T03:29:38;103241.94;;;-0.57;56.53
45040;BME280;30778;53.574;7.770;2023-02-10T03:32:03;103252.47;;;-0.50;56.50
45040;BME280;30778;53.574;7.770;2023-02-10T03:34:30;103249.56;;;-0.58;57.09
45040;BME280;30778;53.574;7.770;2023-02-10T03:36:56;103249.09;;;-0.49;56.82
45040;BME280;30778;53.574;7.770;2023-02-10T03:39:22;103246.13;;;-0.39;56.60
45040;BME280;30778;53.574;7.770;2023-02-10T03:41:48;103250.84;;;-0.48;56.91
45040;BME280;30778;53.574;7.770;2023-02-10T03:44:13;103246.84;;;-0.42;56.50
45040;BME280;30778;53.574;7.770;2023-02-10T03:46:39;103249.38;;;-0.43;56.53
45040;BME280;30778;53.574;7.770;2023-02-10T03:49:04;103250.09;;;-0.65;57.79
45040;BME280;30778;53.574;7.770;2023-02-10T03:51:30;103248.63;;;-0.41;57.30
45040;BME280;30778;53.574;7.770;2023-02-10T03:53:55;103242.13;;;-0.32;57.05
45040;BME280;30778;53.574;7.770;2023-02-10T03:56:21;103246.66;;;-0.66;58.00
45040;BME280;30778;53.574;7.770;2023-02-10T03:58:46;103244.47;;;-0.37;57.26
45040;BME280;30778;53.574;7.770;2023-02-10T04:01:14;103250.03;;;-0.28;57.02
45040;BME280;30778;53.574;7.770;2023-02-10T04:03:42;103250.66;;;-0.33;57.17
45040;BME280;30778;53.574;7.770;2023-02-10T04:06:09;103250.38;;;-0.40;58.08
45040;BME280;30778;53.574;7.770;2023-02-10T04:08:35;103257.19;;;-0.21;57.00
45040;BME280;30778;53.574;7.770;2023-02-10T04:11:01;103254.34;;;-0.46;57.84
45040;BME280;30778;53.574;7.770;2023-02-10T04:13:27;103257.44;;;-0.92;60.38
45040;BME280;30778;53.574;7.770;2023-02-10T04:16:10;103251.94;;;-0.43;57.98
45040;BME280;30778;53.574;7.770;2023-02-10T04:18:36;103251.78;;;-0.27;57.67
45040;BME280;30778;53.574;7.770;2023-02-10T04:21:08;103258.06;;;-0.20;57.30
45040;BME280;30778;53.574;7.770;2023-02-10T04:23:35;103266.63;;;-0.21;57.17
45040;BME280;30778;53.574;7.770;2023-02-10T04:26:01;103265.88;;;-0.19;56.88
45040;BME280;30778;53.574;7.770;2023-02-10T04:28:27;103270.94;;;-0.20;56.89
45040;BME280;30778;53.574;7.770;2023-02-10T04:30:54;103271.88;;;-0.18;56.99
45040;BME280;30778;53.574;7.770;2023-02-10T04:33:20;103271.03;;;-0.17;56.54
45040;BME280;30778;53.574;7.770;2023-02-10T04:35:47;103280.34;;;-0.21;56.23
45040;BME280;30778;53.574;7.770;2023-02-10T04:38:13;103285.69;;;-0.16;56.50
45040;BME280;30778;53.574;7.770;2023-02-10T04:40:41;103287.38;;;-0.17;56.46
45040;BME280;30778;53.574;7.770;2023-02-10T04:43:09;103291.00;;;-0.31;56.99
45040;BME280;30778;53.574;7.770;2023-02-10T04:45:35;103291.84;;;-0.32;57.05
45040;BME280;30778;53.574;7.770;2023-02-10T04:48:00;103280.88;;;-0.28;56.53
45040;BME280;30778;53.574;7.770;2023-02-10T04:50:26;103283.84;;;-0.38;56.76
45040;BME280;30778;53.574;7.770;2023-02-10T04:52:51;103290.03;;;-0.35;56.98
45040;BME280;30778;53.574;7.770;2023-02-10T04:55:17;103286.34;;;-0.20;56.52
45040;BME280;30778;53.574;7.770;2023-02-10T04:57:42;103283.91;;;-0.17;56.49
45040;BME280;30778;53.574;7.770;2023-02-10T05:00:08;103286.81;;;-0.48;57.34
45040;BME280;30778;53.574;7.770;2023-02-10T05:02:37;103294.50;;;-0.48;57.53
45040;BME280;30778;53.574;7.770;2023-02-10T05:05:03;103290.09;;;-0.52;58.01
45040;BME280;30778;53.574;7.770;2023-02-10T05:07:29;103280.31;;;-0.60;57.79
45040;BME280;30778;53.574;7.770;2023-02-10T05:09:55;103291.22;;;-0.46;57.53
45040;BME280;30778;53.574;7.770;2023-02-10T05:12:20;103287.59;;;-0.88;59.15
45040;BME280;30778;53.574;7.770;2023-02-10T05:14:46;103274.66;;;-0.52;58.15
45040;BME280;30778;53.574;7.770;2023-02-10T05:17:11;103280.59;;;-1.09;60.12
45040;BME280;30778;53.574;7.770;2023-02-10T05:19:36;103282.34;;;-0.72;58.82
45040;BME280;30778;53.574;7.770;2023-02-10T05:22:02;103280.00;;;-0.48;57.95
45040;BME280;30778;53.574;7.770;2023-02-10T05:24:27;103282.28;;;-0.54;58.11
45040;BME280;30778;53.574;7.770;2023-02-10T05:26:53;103278.59;;;-0.41;57.82
45040;BME280;30778;53.574;7.770;2023-02-10T05:29:18;103292.63;;;-0.33;57.53
45040;BME280;30778;53.574;7.770;2023-02-10T05:31:44;103294.41;;;-0.32;57.37
45040;BME280;30778;53.574;7.770;2023-02-10T05:34:09;103292.50;;;-0.56;58.35
45040;BME280;30778;53.574;7.770;2023-02-10T05:36:35;103284.53;;;-0.42;58.13
45040;BME280;30778;53.574;7.770;2023-02-10T05:39:00;103311.09;;;-0.61;58.93
45040;BME280;30778;53.574;7.770;2023-02-10T05:41:44;103300.75;;;-0.63;58.67
45040;BME280;30778;53.574;7.770;2023-02-10T05:44:10;103299.00;;;-0.44;58.00
45040;BME280;30778;53.574;7.770;2023-02-10T05:46:35;103291.06;;;-0.49;57.96
45040;BME280;30778;53.574;7.770;2023-02-10T05:49:01;103295.44;;;-0.48;58.29
45040;BME280;30778;53.574;7.770;2023-02-10T05:51:26;103302.47;;;-1.17;60.34
45040;BME280;30778;53.574;7.770;2023-02-10T05:53:51;103300.81;;;-0.61;58.88
45040;BME280;30778;53.574;7.770;2023-02-10T05:56:20;103308.97;;;-0.50;58.48
45040;BME280;30778;53.574;7.770;2023-02-10T05:58:45;103296.06;;;-0.71;58.75
45040;BME280;30778;53.574;7.770;2023-02-10T06:01:11;103292.63;;;-0.33;57.79
45040;BME280;30778;53.574;7.770;2023-02-10T06:03:37;103297.03;;;-0.30;57.54
45040;BME280;30778;53.574;7.770;2023-02-10T06:06:02;103295.47;;;-0.27;57.21
45040;BME280;30778;53.574;7.770;2023-02-10T06:08:29;103300.06;;;-0.59;58.31
45040;BME280;30778;53.574;7.770;2023-02-10T06:10:54;103298.47;;;-0.57;58.28
45040;BME280;30778;53.574;7.770;2023-02-10T06:13:20;103318.34;;;-0.52;58.48
45040;BME280;30778;53.574;7.770;2023-02-10T06:15:48;103315.56;;;-0.38;58.05
45040;BME280;30778;53.574;7.770;2023-02-10T06:18:13;103321.25;;;-0.45;57.97
45040;BME280;30778;53.574;7.770;2023-02-10T06:20:39;103322.81;;;-0.29;57.55
45040;BME280;30778;53.574;7.770;2023-02-10T06:23:04;103327.47;;;-0.40;57.64
45040;BME280;30778;53.574;7.770;2023-02-10T06:25:30;103327.47;;;-0.59;58.24
45040;BME280;30778;53.574;7.770;2023-02-10T06:27:56;103332.50;;;-0.23;57.41
45040;BME280;30778;53.574;7.770;2023-02-10T06:30:22;103334.16;;;-0.43;57.61
45040;BME280;30778;53.574;7.770;2023-02-10T06:32:48;103330.09;;;-0.38;57.35
45040;BME280;30778;53.574;7.770;2023-02-10T06:35:13;103330.84;;;-0.41;57.65
45040;BME280;30778;53.574;7.770;2023-02-10T06:37:39;103332.59;;;-0.40;57.32
45040;BME280;30778;53.574;7.770;2023-02-10T06:40:05;103335.25;;;-0.38;57.05
45040;BME280;30778;53.574;7.770;2023-02-10T06:42:31;103329.97;;;-0.41;57.53
45040;BME280;30778;53.574;7.770;2023-02-10T06:44:57;103338.19;;;-0.48;57.86
45040;BME280;30778;53.574;7.770;2023-02-10T06:47:22;103348.47;;;-0.48;57.59
45040;BME280;30778;53.574;7.770;2023-02-10T06:49:48;103336.13;;;-0.38;56.95
45040;BME280;30778;53.574;7.770;2023-02-10T06:52:13;103341.88;;;-0.43;56.78
45040;BME280;30778;53.574;7.770;2023-02-10T06:54:39;103336.63;;;-0.82;58.19
45040;BME280;30778;53.574;7.770;2023-02-10T06:57:04;103338.91;;;-0.52;57.22
45040;BME280;30778;53.574;7.770;2023-02-10T06:59:32;103342.13;;;-0.57;57.48
45040;BME280;30778;53.574;7.770;2023-02-10T07:01:57;103342.38;;;-0.70;57.83
45040;BME280;30778;53.574;7.770;2023-02-10T07:04:30;103349.97;;;-0.53;57.25
45040;BME280;30778;53.574;7.770;2023-02-10T07:06:56;103352.34;;;-0.76;58.35
45040;BME280;30778;53.574;7.770;2023-02-10T07:09:22;103350.38;;;-0.64;58.13
45040;BME280;30778;53.574;7.770;2023-02-10T07:11:48;103338.13;;;-0.87;58.35
45040;BME280;30778;53.574;7.770;2023-02-10T07:14:14;103343.00;;;-0.56;57.88
45040;BME280;30778;53.574;7.770;2023-02-10T07:16:40;103347.09;;;-0.60;58.07
45040;BME280;30778;53.574;7.770;2023-02-10T07:19:05;103352.22;;;-0.79;58.49
45040;BME280;30778;53.574;7.770;2023-02-10T07:21:31;103350.69;;;-0.56;58.21
45040;BME280;30778;53.574;7.770;2023-02-10T07:23:56;103361.09;;;-0.53;58.07
45040;BME280;30778;53.574;7.770;2023-02-10T07:26:22;103354.78;;;-0.79;59.17
45040;BME280;30778;53.574;7.770;2023-02-10T07:28:47;103358.28;;;-0.40;57.95
45040;BME280;30778;53.574;7.770;2023-02-10T07:31:13;103351.63;;;-0.36;58.12
45040;BME280;30778;53.574;7.770;2023-02-10T07:33:39;103350.13;;;-0.68;58.69
45040;BME280;30778;53.574;7.770;2023-02-10T07:36:05;103345.66;;;-0.35;58.14
45040;BME280;30778;53.574;7.770;2023-02-10T07:38:31;103347.75;;;-0.46;58.34
45040;BME280;30778;53.574;7.770;2023-02-10T07:40:56;103349.41;;;-0.09;57.85
45040;BME280;30778;53.574;7.770;2023-02-10T07:43:22;103360.47;;;0.10;57.74
45040;BME280;30778;53.574;7.770;2023-02-10T07:45:58;103357.31;;;0.15;57.38
45040;BME280;30778;53.574;7.770;2023-02-10T07:48:23;103359.19;;;-0.20;58.24
45040;BME280;30778;53.574;7.770;2023-02-10T07:50:50;103351.28;;;-0.05;58.08
45040;BME280;30778;53.574;7.770;2023-02-10T07:53:17;103353.88;;;0.36;56.71
45040;BME280;30778;53.574;7.770;2023-02-10T07:55:43;103353.28;;;0.62;55.99
45040;BME280;30778;53.574;7.770;2023-02-10T07:58:08;103344.50;;;0.78;55.43
45040;BME280;30778;53.574;7.770;2023-02-10T08:00:34;103344.38;;;1.19;54.61
45040;BME280;30778;53.574;7.770;2023-02-10T08:03:00;103342.41;;;0.69;55.12
45040;BME280;30778;53.574;7.770;2023-02-10T08:05:25;103348.81;;;1.00;53.95
45040;BME280;30778;53.574;7.770;2023-02-10T08:07:53;103341.00;;;1.42;54.44
45040;BME280;30778;53.574;7.770;2023-02-10T08:10:19;103344.59;;;2.44;52.69
45040;BME280;30778;53.574;7.770;2023-02-10T08:12:44;103343.69;;;2.67;49.83
45040;BME280;30778;53.574;7.770;2023-02-10T08:15:11;103355.56;;;2.11;52.03
45040;BME280;30778;53.574;7.770;2023-02-10T08:17:37;103355.34;;;2.56;50.92
45040;BME280;30778;53.574;7.770;2023-02-10T08:20:05;103348.38;;;3.64;48.88
45040;BME280;30778;53.574;7.770;2023-02-10T08:22:33;103341.09;;;4.14;48.13
45040;BME280;30778;53.574;7.770;2023-02-10T08:24:59;103341.94;;;4.46;45.28
45040;BME280;30778;53.574;7.770;2023-02-10T08:27:25;103336.50;;;5.07;45.32
45040;BME280;30778;53.574;7.770;2023-02-10T08:29:50;103349.69;;;4.79;45.72
45040;BME280;30778;53.574;7.770;2023-02-10T08:32:16;103353.41;;;4.22;47.44
45040;BME280;30778;53.574;7.770;2023-02-10T08:34:48;103353.19;;;4.81;46.31
45040;BME280;30778;53.574;7.770;2023-02-10T08:37:14;103350.91;;;4.59;44.96
45040;BME280;30778;53.574;7.770;2023-02-10T08:39:40;103347.66;;;3.39;47.70
45040;BME280;30778;53.574;7.770;2023-02-10T08:42:06;103355.84;;;4.50;44.87
45040;BME280;30778;53.574;7.770;2023-02-10T08:44:31;103354.50;;;5.00;45.35
45040;BME280;30778;53.574;7.770;2023-02-10T08:46:57;103352.00;;;5.03;45.98
45040;BME280;30778;53.574;7.770;2023-02-10T08:49:22;103354.72;;;5.49;43.81
45040;BME280;30778;53.574;7.770;2023-02-10T08:51:54;103358.50;;;4.88;46.34
45040;BME280;30778;53.574;7.770;2023-02-10T08:54:20;103349.38;;;5.43;44.53
45040;BME280;30778;53.574;7.770;2023-02-10T08:56:45;103345.91;;;6.29;42.46
45040;BME280;30778;53.574;7.770;2023-02-10T08:59:11;103351.66;;;5.69;42.67
45040;BME280;30778;53.574;7.770;2023-02-10T09:01:36;103357.34;;;5.95;44.39
45040;BME280;30778;53.574;7.770;2023-02-10T09:04:02;103357.34;;;5.93;43.03
45040;BME280;30778;53.574;7.770;2023-02-10T09:06:31;103351.38;;;5.97;43.62
45040;BME280;30778;53.574;7.770;2023-02-10T09:08:58;103351.47;;;6.52;43.92
45040;BME280;30778;53.574;7.770;2023-02-10T09:11:26;103357.69;;;5.27;45.46
45040;BME280;30778;53.574;7.770;2023-02-10T09:13:52;103355.88;;;5.22;46.38
45040;BME280;30778;53.574;7.770;2023-02-10T09:16:18;103355.47;;;5.05;45.78
45040;BME280;30778;53.574;7.770;2023-02-10T09:18:44;103367.00;;;4.47;46.75
45040;BME280;30778;53.574;7.770;2023-02-10T09:21:10;103365.81;;;4.02;48.57
45040;BME280;30778;53.574;7.770;2023-02-10T09:23:36;103367.72;;;4.76;46.50
45040;BME280;30778;53.574;7.770;2023-02-10T09:26:02;103365.13;;;4.75;46.48
45040;BME280;30778;53.574;7.770;2023-02-10T09:28:28;103375.84;;;4.55;47.26
45040;BME280;30778;53.574;7.770;2023-02-10T09:30:54;103364.88;;;3.69;49.08
45040;BME280;30778;53.574;7.770;2023-02-10T09:33:19;103364.50;;;3.85;48.57
45040;BME280;30778;53.574;7.770;2023-02-10T09:35:45;103359.78;;;4.02;49.09
45040;BME280;30778;53.574;7.770;2023-02-10T09:38:12;103362.63;;;4.45;48.59
45040;BME280;30778;53.574;7.770;2023-02-10T09:40:49;103360.44;;;4.95;47.02
45040;BME280;30778;53.574;7.770;2023-02-10T09:45:52;103364.47;;;4.83;47.33
45040;BME280;30778;53.574;7.770;2023-02-10T09:48:31;103365.41;;;4.19;49.01
45040;BME280;30778;53.574;7.770;2023-02-10T09:51:31;103366.25;;;5.22;47.59
45040;BME280;30778;53.574;7.770;2023-02-10T09:54:00;103361.47;;;5.01;47.97
45040;BME280;30778;53.574;7.770;2023-02-10T09:56:26;103368.78;;;5.60;46.97
45040;BME280;30778;53.574;7.770;2023-02-10T09:58:54;103366.00;;;5.51;46.27
45040;BME280;30778;53.574;7.770;2023-02-10T10:01:35;103369.53;;;4.79;49.16
45040;BME280;30778;53.574;7.770;2023-02-10T10:04:17;103364.53;;;4.52;49.52
45040;BME280;30778;53.574;7.770;2023-02-10T10:06:52;103362.59;;;4.10;50.35
45040;BME280;30778;53.574;7.770;2023-02-10T10:09:41;103365.97;;;4.75;48.47
45040;BME280;30778;53.574;7.770;2023-02-10T10:12:11;103373.25;;;4.89;49.29
45040;BME280;30778;53.574;7.770;2023-02-10T10:14:40;103368.72;;;5.57;47.47
45040;BME280;30778;53.574;7.770;2023-02-10T10:17:38;103367.81;;;5.99;46.70
45040;BME280;30778;53.574;7.770;2023-02-10T10:23:04;103365.75;;;5.81;47.39
45040;BME280;30778;53.574;7.770;2023-02-10T10:25:55;103375.59;;;4.79;48.96
45040;BME280;30778;53.574;7.770;2023-02-10T10:33:43;103363.34;;;5.92;46.19
45040;BME280;30778;53.574;7.770;2023-02-10T10:36:15;103363.13;;;6.25;46.07
45040;BME280;30778;53.574;7.770;2023-02-10T10:38:50;103361.75;;;5.99;45.66
45040;BME280;30778;53.574;7.770;2023-02-10T10:41:16;103365.31;;;4.49;49.52
45040;BME280;30778;53.574;7.770;2023-02-10T10:43:45;103353.13;;;4.45;50.46
45040;BME280;30778;53.574;7.770;2023-02-10T10:48:47;103341.56;;;5.40;47.39
45040;BME280;30778;53.574;7.770;2023-02-10T10:51:12;103336.94;;;6.15;46.74
45040;BME280;30778;53.574;7.770;2023-02-10T10:53:47;103330.31;;;6.84;45.18
45040;BME280;30778;53.574;7.770;2023-02-10T10:56:36;103323.06;;;6.11;46.19
45040;BME280;30778;53.574;7.770;2023-02-10T10:59:15;103326.97;;;5.45;47.31
45040;BME280;30778;53.574;7.770;2023-02-10T11:01:44;103322.34;;;5.73;46.75
45040;BME280;30778;53.574;7.770;2023-02-10T11:04:15;103312.97;;;6.28;46.27
45040;BME280;30778;53.574;7.770;2023-02-10T11:06:43;103312.41;;;7.04;43.59
45040;BME280;30778;53.574;7.770;2023-02-10T11:09:36;103304.06;;;6.65;45.44
45040;BME280;30778;53.574;7.770;2023-02-10T11:12:24;103314.78;;;5.85;46.12
45040;BME280;30778;53.574;7.770;2023-02-10T11:14:53;103307.84;;;5.40;46.96
45040;BME280;30778;53.574;7.770;2023-02-10T11:17:32;103299.16;;;6.29;45.62
45040;BME280;30778;53.574;7.770;2023-02-10T11:22:37;103284.06;;;6.61;45.01
45040;BME280;30778;53.574;7.770;2023-02-10T11:27:53;103296.56;;;6.85;44.62
45040;BME280;30778;53.574;7.770;2023-02-10T11:32:55;103302.50;;;6.25;46.00
45040;BME280;30778;53.574;7.770;2023-02-10T11:35:21;103300.31;;;7.06;44.68
45040;BME280;30778;53.574;7.770;2023-02-10T11:37:56;103301.31;;;7.17;44.88
45040;BME280;30778;53.574;7.770;2023-02-10T11:41:08;103299.59;;;6.55;45.96
45040;BME280;30778;53.574;7.770;2023-02-10T11:43:46;103291.44;;;6.34;45.27
45040;BME280;30778;53.574;7.770;2023-02-10T11:46:24;103299.94;;;5.78;47.20
45040;BME280;30778;53.574;7.770;2023-02-10T11:48:54;103290.50;;;5.37;48.09
45040;BME280;30778;53.574;7.770;2023-02-10T11:51:20;103281.44;;;5.18;49.27
45040;BME280;30778;53.574;7.770;2023-02-10T11:53:46;103287.13;;;5.43;48.41
45040;BME280;30778;53.574;7.770;2023-02-10T11:59:42;103289.63;;;6.29;46.50
45040;BME280;30778;53.574;7.770;2023-02-10T12:05:25;103275.16;;;6.45;45.90
45040;BME280;30778;53.574;7.770;2023-02-10T12:10:31;103275.44;;;6.12;46.69
45040;BME280;30778;53.574;7.770;2023-02-10T12:13:15;103281.19;;;5.47;48.18
45040;BME280;30778;53.574;7.770;2023-02-10T12:24:05;103266.53;;;5.49;47.86
45040;BME280;30778;53.574;7.770;2023-02-10T12:26:48;103257.59;;;6.31;46.16
45040;BME280;30778;53.574;7.770;2023-02-10T12:38:03;103250.41;;;6.16;46.23
45040;BME280;30778;53.574;7.770;2023-02-10T12:46:11;103250.59;;;5.31;48.06
45040;BME280;30778;53.574;7.770;2023-02-10T12:54:24;103222.91;;;6.27;46.54
45040;BME280;30778;53.574;7.770;2023-02-10T12:56:55;103238.84;;;5.48;47.95
45040;BME280;30778;53.574;7.770;2023-02-10T12:59:26;103232.13;;;5.59;48.27
45040;BME280;30778;53.574;7.770;2023-02-10T13:01:56;103221.50;;;5.47;48.80
45040;BME280;30778;53.574;7.770;2023-02-10T13:04:31;103226.50;;;5.82;47.71
45040;BME280;30778;53.574;7.770;2023-02-10T13:10:16;103209.22;;;4.55;50.11
45040;BME280;30778;53.574;7.770;2023-02-10T13:12:46;103200.75;;;5.47;48.18
45040;BME280;30778;53.574;7.770;2023-02-10T13:15:25;103195.44;;;6.41;46.08
45040;BME280;30778;53.574;7.770;2023-02-10T13:17:53;103190.97;;;5.81;46.73
45040;BME280;30778;53.574;7.770;2023-02-10T13:20:27;103193.44;;;5.72;47.50
45040;BME280;30778;53.574;7.770;2023-02-10T13:23:29;103179.13;;;6.52;45.17
45040;BME280;30778;53.574;7.770;2023-02-10T13:26:13;103187.22;;;5.63;46.23
45040;BME280;30778;53.574;7.770;2023-02-10T13:34:22;103195.97;;;5.21;47.61
45040;BME280;30778;53.574;7.770;2023-02-10T13:39:25;103186.72;;;5.36;47.89
45040;BME280;30778;53.574;7.770;2023-02-10T13:42:24;103175.88;;;5.58;47.16
45040;BME280;30778;53.574;7.770;2023-02-10T13:44:59;103193.03;;;5.50;47.03
45040;BME280;30778;53.574;7.770;2023-02-10T14:00:48;103184.66;;;4.77;49.14
45040;BME280;30778;53.574;7.770;2023-02-10T14:06:03;103176.75;;;5.57;47.37
45040;BME280;30778;53.574;7.770;2023-02-10T14:08:41;103182.03;;;5.16;48.47
45040;BME280;30778;53.574;7.770;2023-02-10T14:13:42;103166.63;;;5.24;48.25
45040;BME280;30778;53.574;7.770;2023-02-10T14:18:43;103162.00;;;5.09;48.33
45040;BME280;30778;53.574;7.770;2023-02-10T14:21:13;103152.97;;;5.33;47.99
45040;BME280;30778;53.574;7.770;2023-02-10T14:23:42;103159.25;;;5.47;48.16
45040;BME280;30778;53.574;7.770;2023-02-10T14:26:19;103158.94;;;5.29;47.02
45040;BME280;30778;53.574;7.770;2023-02-10T14:28:54;103172.06;;;5.38;46.90
45040;BME280;30778;53.574;7.770;2023-02-10T14:31:29;103152.63;;;5.61;46.47
45040;BME280;30778;53.574;7.770;2023-02-10T14:33:59;103144.38;;;5.35;46.59
45040;BME280;30778;53.574;7.770;2023-02-10T14:36:26;103135.06;;;4.99;47.47
45040;BME280;30778;53.574;7.770;2023-02-10T14:38:56;103135.53;;;5.25;46.87
45040;BME280;30778;53.574;7.770;2023-02-10T14:41:23;103139.03;;;5.28;47.39
45040;BME280;30778;53.574;7.770;2023-02-10T14:43:50;103128.19;;;5.01;47.39
45040;BME280;30778;53.574;7.770;2023-02-10T14:46:22;103121.47;;;5.13;47.72
45040;BME280;30778;53.574;7.770;2023-02-10T14:48:49;103122.22;;;5.07;47.26
45040;BME280;30778;53.574;7.770;2023-02-10T14:51:22;103118.63;;;5.48;46.36
45040;BME280;30778;53.574;7.770;2023-02-10T14:53:48;103122.91;;;5.99;45.42
45040;BME280;30778;53.574;7.770;2023-02-10T14:56:23;103115.97;;;6.56;42.90